sensor_id;sensor_type;location;lat;lon;timestamp;P1;durP1;ratioP1;P2;durP2;ratioP2
12884;SDS011;6510;51.362;7.370;2023-07-29T00:01:30;0.00;;;0.00;;
12884;SDS011;6510;51.362;7.370;2023-07-29T00:03:56;0.10;;;0.10;;
12884;SDS011;6510;51.362;7.370;2023-07-29T00:06:21;0.10;;;0.10;;
12884;SDS011;6510;51.362;7.370;2023-07-29T00:08:47;0.10;;;0.10;;
12884;SDS011;6510;51.362;7.370;2023-07-29T00:11:12;0.10;;;0.10;;
12884;SDS011;6510;51.362;7.370;2023-07-29T00:13:38;0.10;;;0.10;;
12884;SDS011;6510;51.362;7.370;2023-07-29T00:16:04;0.00;;;0.00;;
12884;SDS011;6510;51.362;7.370;2023-07-29T00:18:29;0.00;;;0.00;;
12884;SDS011;6510;51.362;7.370;2023-07-29T00:20:56;0.10;;;0.10;;
12884;SDS011;6510;51.362;7.370;2023-07-29T00:23:22;0.10;;;0.10;;
12884;SDS011;6510;51.362;7.370;2023-07-29T00:25:48;0.10;;;0.10;;
12884;SDS011;6510;51.362;7.370;2023-07-29T00:28:14;0.10;;;0.10;;
12884;SDS011;6510;51.362;7.370;2023-07-29T00:30:40;0.10;;;0.10;;
12884;SDS011;6510;51.362;7.370;2023-07-29T00:33:06;0.10;;;0.10;;
12884;SDS011;6510;51.362;7.370;2023-07-29T00:35:32;0.10;;;0.10;;
12884;SDS011;6510;51.362;7.370;2023-07-29T00:37:58;0.10;;;0.10;;
12884;SDS011;6510;51.362;7.370;2023-07-29T00:40:24;0.10;;;0.10;;
12884;SDS011;6510;51.362;7.370;2023-07-29T00:42:49;0.10;;;0.10;;
12884;SDS011;6510;51.362;7.370;2023-07-29T00:45:18;0.10;;;0.10;;
12884;SDS011;6510;51.362;7.370;2023-07-29T00:47:43;0.10;;;0.10;;
12884;SDS011;6510;51.362;7.370;2023-07-29T00:50:10;0.10;;;0.10;;
12884;SDS011;6510;51.362;7.370;2023-07-29T00:52:39;0.10;;;0.10;;
12884;SDS011;6510;51.362;7.370;2023-07-29T00:55:05;0.10;;;0.10;;
12884;SDS011;6510;51.362;7.370;2023-07-29T00:57:31;0.10;;;0.10;;
12884;SDS011;6510;51.362;7.370;2023-07-29T00:59:58;0.10;;;0.10;;
12884;SDS011;6510;51.362;7.370;2023-07-29T01:02:24;0.10;;;0.10;;
12884;SDS011;6510;51.362;7.370;2023-07-29T01:04:52;0.10;;;0.10;;
12884;SDS011;6510;51.362;7.370;2023-07-29T01:07:21;0.10;;;0.10;;
12884;SDS011;6510;51.362;7.370;2023-07-29T01:09:55;0.00;;;0.00;;
12884;SDS011;6510;51.362;7.370;2023-07-29T01:15:35;0.10;;;0.10;;
12884;SDS011;6510;51.362;7.370;2023-07-29T01:18:23;0.10;;;0.10;;
12884;SDS011;6510;51.362;7.370;2023-07-29T01:21:02;0.00;;;0.00;;
12884;SDS011;6510;51.362;7.370;2023-07-29T01:23:33;0.10;;;0.10;;
12884;SDS011;6510;51.362;7.370;2023-07-29T01:26:00;0.10;;;0.10;;
12884;SDS011;6510;51.362;7.370;2023-07-29T01:28:27;0.10;;;0.10;;
12884;SDS011;6510;51.362;7.370;2023-07-29T01:30:57;0.10;;;0.10;;
12884;SDS011;6510;51.362;7.370;2023-07-29T01:33:39;0.10;;;0.10;;
12884;SDS011;6510;51.362;7.370;2023-07-29T01:36:15;0.10;;;0.10;;
12884;SDS011;6510;51.362;7.370;2023-07-29T01:38:45;0.10;;;0.10;;
12884;SDS011;6510;51.362;7.370;2023-07-29T01:41:12;0.10;;;0.10;;
12884;SDS011;6510;51.362;7.370;2023-07-29T01:43:39;0.00;;;0.00;;
12884;SDS011;6510;51.362;7.370;2023-07-29T01:46:09;0.00;;;0.00;;
12884;SDS011;6510;51.362;7.370;2023-07-29T01:48:36;0.10;;;0.10;;
12884;SDS011;6510;51.362;7.370;2023-07-29T01:51:02;0.00;;;0.00;;
12884;SDS011;6510;51.362;7.370;2023-07-29T01:53:28;0.10;;;0.10;;
12884;SDS011;6510;51.362;7.370;2023-07-29T01:55:54;0.10;;;0.10;;
12884;SDS011;6510;51.362;7.370;2023-07-29T01:58:20;0.10;;;0.10;;
12884;SDS011;6510;51.362;7.370;2023-07-29T02:00:45;0.00;;;0.00;;
12884;SDS011;6510;51.362;7.370;2023-07-29T02:03:11;0.00;;;0.00;;
12884;SDS011;6510;51.362;7.370;2023-07-29T02:05:36;0.10;;;0.10;;
12884;SDS011;6510;51.362;7.370;2023-07-29T02:08:02;0.10;;;0.10;;
12884;SDS011;6510;51.362;7.370;2023-07-29T02:10:28;0.10;;;0.10;;
12884;SDS011;6510;51.362;7.370;2023-07-29T02:12:53;0.03;;;0.03;;
12884;SDS011;6510;51.362;7.370;2023-07-29T02:15:19;0.10;;;0.10;;
12884;SDS011;6510;51.362;7.370;2023-07-29T02:17:44;0.10;;;0.10;;
12884;SDS011;6510;51.362;7.370;2023-07-29T02:20:10;0.10;;;0.10;;
12884;SDS011;6510;51.362;7.370;2023-07-29T02:22:36;0.07;;;0.07;;
12884;SDS011;6510;51.362;7.370;2023-07-29T02:25:01;0.10;;;0.10;;
12884;SDS011;6510;51.362;7.370;2023-07-29T02:27:27;0.10;;;0.10;;
12884;SDS011;6510;51.362;7.370;2023-07-29T02:29:54;0.10;;;0.10;;
12884;SDS011;6510;51.362;7.370;2023-07-29T02:32:20;0.10;;;0.10;;
12884;SDS011;6510;51.362;7.370;2023-07-29T02:34:46;0.10;;;0.10;;
12884;SDS011;6510;51.362;7.370;2023-07-29T02:37:11;0.10;;;0.10;;
12884;SDS011;6510;51.362;7.370;2023-07-29T02:39:37;0.10;;;0.10;;
12884;SDS011;6510;51.362;7.370;2023-07-29T02:42:02;0.10;;;0.10;;
12884;SDS011;6510;51.362;7.370;2023-07-29T02:44:28;0.10;;;0.10;;
12884;SDS011;6510;51.362;7.370;2023-07-29T02:46:54;0.10;;;0.10;;
12884;SDS011;6510;51.362;7.370;2023-07-29T02:49:21;0.10;;;0.10;;
12884;SDS011;6510;51.362;7.370;2023-07-29T02:51:48;0.10;;;0.10;;
12884;SDS011;6510;51.362;7.370;2023-07-29T02:54:13;0.10;;;0.10;;
12884;SDS011;6510;51.362;7.370;2023-07-29T02:56:42;0.10;;;0.10;;
12884;SDS011;6510;51.362;7.370;2023-07-29T02:59:07;0.10;;;0.10;;
12884;SDS011;6510;51.362;7.370;2023-07-29T03:01:33;0.10;;;0.10;;
12884;SDS011;6510;51.362;7.370;2023-07-29T03:03:59;0.10;;;0.10;;
12884;SDS011;6510;51.362;7.370;2023-07-29T03:06:24;0.10;;;0.10;;
12884;SDS011;6510;51.362;7.370;2023-07-29T03:08:50;0.10;;;0.10;;
12884;SDS011;6510;51.362;7.370;2023-07-29T03:11:16;0.00;;;0.00;;
12884;SDS011;6510;51.362;7.370;2023-07-29T03:13:42;0.10;;;0.10;;
12884;SDS011;6510;51.362;7.370;2023-07-29T03:16:08;0.10;;;0.10;;
12884;SDS011;6510;51.362;7.370;2023-07-29T03:18:36;0.10;;;0.10;;
12884;SDS011;6510;51.362;7.370;2023-07-29T03:21:02;0.10;;;0.10;;
12884;SDS011;6510;51.362;7.370;2023-07-29T03:23:28;0.10;;;0.10;;
12884;SDS011;6510;51.362;7.370;2023-07-29T03:25:55;0.10;;;0.10;;
12884;SDS011;6510;51.362;7.370;2023-07-29T03:28:23;0.10;;;0.10;;
12884;SDS011;6510;51.362;7.370;2023-07-29T03:30:50;0.10;;;0.10;;
12884;SDS011;6510;51.362;7.370;2023-07-29T03:33:15;0.10;;;0.10;;
12884;SDS011;6510;51.362;7.370;2023-07-29T03:35:41;0.10;;;0.10;;
12884;SDS011;6510;51.362;7.370;2023-07-29T03:38:09;0.10;;;0.10;;
12884;SDS011;6510;51.362;7.370;2023-07-29T03:40:36;0.10;;;0.10;;
12884;SDS011;6510;51.362;7.370;2023-07-29T03:43:02;0.10;;;0.10;;
12884;SDS011;6510;51.362;7.370;2023-07-29T03:45:28;0.10;;;0.10;;
12884;SDS011;6510;51.362;7.370;2023-07-29T03:47:55;0.10;;;0.10;;
12884;SDS011;6510;51.362;7.370;2023-07-29T03:50:21;0.10;;;0.10;;
12884;SDS011;6510;51.362;7.370;2023-07-29T03:52:47;0.10;;;0.10;;
12884;SDS011;6510;51.362;7.370;2023-07-29T03:55:12;0.10;;;0.10;;
12884;SDS011;6510;51.362;7.370;2023-07-29T03:57:38;0.10;;;0.10;;
12884;SDS011;6510;51.362;7.370;2023-07-29T04:00:04;0.10;;;0.10;;
12884;SDS011;6510;51.362;7.370;2023-07-29T04:02:30;0.10;;;0.10;;
12884;SDS011;6510;51.362;7.370;2023-07-29T04:04:56;0.10;;;0.10;;
12884;SDS011;6510;51.362;7.370;2023-07-29T04:07:22;0.10;;;0.10;;
12884;SDS011;6510;51.362;7.370;2023-07-29T04:09:47;0.10;;;0.10;;
12884;SDS011;6510;51.362;7.370;2023-07-29T04:12:14;0.10;;;0.10;;
12884;SDS011;6510;51.362;7.370;2023-07-29T04:14:40;0.10;;;0.10;;
12884;SDS011;6510;51.362;7.370;2023-07-29T04:17:06;0.00;;;0.00;;
12884;SDS011;6510;51.362;7.370;2023-07-29T04:19:32;0.10;;;0.10;;
12884;SDS011;6510;51.362;7.370;2023-07-29T04:21:58;0.10;;;0.10;;
12884;SDS011;6510;51.362;7.370;2023-07-29T04:24:24;0.10;;;0.10;;
12884;SDS011;6510;51.362;7.370;2023-07-29T04:26:49;0.10;;;0.10;;
12884;SDS011;6510;51.362;7.370;2023-07-29T04:29:15;0.10;;;0.10;;
12884;SDS011;6510;51.362;7.370;2023-07-29T04:31:41;0.10;;;0.10;;
12884;SDS011;6510;51.362;7.370;2023-07-29T04:34:07;0.10;;;0.10;;
12884;SDS011;6510;51.362;7.370;2023-07-29T04:36:33;0.10;;;0.10;;
12884;SDS011;6510;51.362;7.370;2023-07-29T04:38:59;0.10;;;0.10;;
12884;SDS011;6510;51.362;7.370;2023-07-29T04:41:24;0.10;;;0.10;;
12884;SDS011;6510;51.362;7.370;2023-07-29T04:43:50;0.10;;;0.10;;
12884;SDS011;6510;51.362;7.370;2023-07-29T04:46:15;0.10;;;0.10;;
12884;SDS011;6510;51.362;7.370;2023-07-29T04:48:41;0.10;;;0.10;;
12884;SDS011;6510;51.362;7.370;2023-07-29T04:51:07;0.10;;;0.10;;
12884;SDS011;6510;51.362;7.370;2023-07-29T04:53:32;0.10;;;0.10;;
12884;SDS011;6510;51.362;7.370;2023-07-29T04:56:00;0.10;;;0.10;;
12884;SDS011;6510;51.362;7.370;2023-07-29T04:58:26;0.10;;;0.10;;
12884;SDS011;6510;51.362;7.370;2023-07-29T05:00:53;0.10;;;0.10;;
12884;SDS011;6510;51.362;7.370;2023-07-29T05:03:19;0.10;;;0.10;;
12884;SDS011;6510;51.362;7.370;2023-07-29T05:05:45;0.10;;;0.10;;
12884;SDS011;6510;51.362;7.370;2023-07-29T05:08:10;0.00;;;0.00;;
12884;SDS011;6510;51.362;7.370;2023-07-29T05:10:36;0.10;;;0.10;;
12884;SDS011;6510;51.362;7.370;2023-07-29T05:13:01;0.10;;;0.10;;
12884;SDS011;6510;51.362;7.370;2023-07-29T05:15:27;0.10;;;0.10;;
12884;SDS011;6510;51.362;7.370;2023-07-29T05:17:53;0.10;;;0.10;;
12884;SDS011;6510;51.362;7.370;2023-07-29T05:20:18;0.00;;;0.00;;
12884;SDS011;6510;51.362;7.370;2023-07-29T05:22:44;0.10;;;0.10;;
12884;SDS011;6510;51.362;7.370;2023-07-29T05:25:09;0.10;;;0.10;;
12884;SDS011;6510;51.362;7.370;2023-07-29T05:27:35;0.10;;;0.10;;
12884;SDS011;6510;51.362;7.370;2023-07-29T05:30:01;0.10;;;0.10;;
12884;SDS011;6510;51.362;7.370;2023-07-29T05:32:26;0.10;;;0.10;;
12884;SDS011;6510;51.362;7.370;2023-07-29T05:34:52;0.10;;;0.10;;
12884;SDS011;6510;51.362;7.370;2023-07-29T05:37:17;0.10;;;0.10;;
12884;SDS011;6510;51.362;7.370;2023-07-29T05:39:43;0.00;;;0.00;;
12884;SDS011;6510;51.362;7.370;2023-07-29T05:42:08;0.10;;;0.10;;
12884;SDS011;6510;51.362;7.370;2023-07-29T05:44:34;0.10;;;0.10;;
12884;SDS011;6510;51.362;7.370;2023-07-29T05:47:00;0.10;;;0.10;;
12884;SDS011;6510;51.362;7.370;2023-07-29T05:49:25;0.10;;;0.10;;
12884;SDS011;6510;51.362;7.370;2023-07-29T05:51:51;0.10;;;0.10;;
12884;SDS011;6510;51.362;7.370;2023-07-29T05:54:18;0.03;;;0.03;;
12884;SDS011;6510;51.362;7.370;2023-07-29T05:56:44;0.10;;;0.10;;
12884;SDS011;6510;51.362;7.370;2023-07-29T05:59:09;0.00;;;0.00;;
12884;SDS011;6510;51.362;7.370;2023-07-29T06:01:35;0.10;;;0.10;;
12884;SDS011;6510;51.362;7.370;2023-07-29T06:04:01;0.10;;;0.10;;
12884;SDS011;6510;51.362;7.370;2023-07-29T06:06:26;0.10;;;0.10;;
12884;SDS011;6510;51.362;7.370;2023-07-29T06:08:52;0.10;;;0.10;;
12884;SDS011;6510;51.362;7.370;2023-07-29T06:11:18;0.10;;;0.10;;
12884;SDS011;6510;51.362;7.370;2023-07-29T06:13:44;0.10;;;0.10;;
12884;SDS011;6510;51.362;7.370;2023-07-29T06:16:09;0.03;;;0.03;;
12884;SDS011;6510;51.362;7.370;2023-07-29T06:18:35;0.10;;;0.10;;
12884;SDS011;6510;51.362;7.370;2023-07-29T06:21:00;0.10;;;0.10;;
12884;SDS011;6510;51.362;7.370;2023-07-29T06:23:26;0.10;;;0.10;;
12884;SDS011;6510;51.362;7.370;2023-07-29T06:25:51;0.10;;;0.10;;
12884;SDS011;6510;51.362;7.370;2023-07-29T06:28:17;0.10;;;0.10;;
12884;SDS011;6510;51.362;7.370;2023-07-29T06:30:43;0.10;;;0.10;;
12884;SDS011;6510;51.362;7.370;2023-07-29T06:33:08;0.10;;;0.10;;
12884;SDS011;6510;51.362;7.370;2023-07-29T06:35:34;0.10;;;0.10;;
12884;SDS011;6510;51.362;7.370;2023-07-29T06:38:00;0.10;;;0.10;;
12884;SDS011;6510;51.362;7.370;2023-07-29T06:40:25;0.10;;;0.10;;
12884;SDS011;6510;51.362;7.370;2023-07-29T06:42:51;0.10;;;0.10;;
12884;SDS011;6510;51.362;7.370;2023-07-29T06:45:16;0.00;;;0.00;;
12884;SDS011;6510;51.362;7.370;2023-07-29T06:47:42;0.10;;;0.10;;
12884;SDS011;6510;51.362;7.370;2023-07-29T06:50:08;0.10;;;0.10;;
12884;SDS011;6510;51.362;7.370;2023-07-29T06:52:34;0.07;;;0.07;;
12884;SDS011;6510;51.362;7.370;2023-07-29T06:54:59;0.10;;;0.10;;
12884;SDS011;6510;51.362;7.370;2023-07-29T06:57:25;0.10;;;0.10;;
12884;SDS011;6510;51.362;7.370;2023-07-29T06:59:50;0.10;;;0.10;;
12884;SDS011;6510;51.362;7.370;2023-07-29T07:02:16;0.10;;;0.10;;
12884;SDS011;6510;51.362;7.370;2023-07-29T07:04:42;0.10;;;0.10;;
12884;SDS011;6510;51.362;7.370;2023-07-29T07:07:07;0.10;;;0.10;;
12884;SDS011;6510;51.362;7.370;2023-07-29T07:09:33;0.10;;;0.10;;
12884;SDS011;6510;51.362;7.370;2023-07-29T07:11:58;0.10;;;0.10;;
12884;SDS011;6510;51.362;7.370;2023-07-29T07:14:24;0.10;;;0.10;;
12884;SDS011;6510;51.362;7.370;2023-07-29T07:16:50;0.10;;;0.10;;
12884;SDS011;6510;51.362;7.370;2023-07-29T07:19:16;0.10;;;0.10;;
12884;SDS011;6510;51.362;7.370;2023-07-29T07:21:42;0.10;;;0.10;;
12884;SDS011;6510;51.362;7.370;2023-07-29T07:24:07;0.10;;;0.10;;
12884;SDS011;6510;51.362;7.370;2023-07-29T07:26:33;0.10;;;0.10;;
12884;SDS011;6510;51.362;7.370;2023-07-29T07:28:59;0.20;;;0.20;;
12884;SDS011;6510;51.362;7.370;2023-07-29T07:31:25;0.10;;;0.10;;
12884;SDS011;6510;51.362;7.370;2023-07-29T07:33:50;0.10;;;0.10;;
12884;SDS011;6510;51.362;7.370;2023-07-29T07:36:16;0.20;;;0.20;;
12884;SDS011;6510;51.362;7.370;2023-07-29T07:38:41;0.10;;;0.10;;
12884;SDS011;6510;51.362;7.370;2023-07-29T07:41:07;0.10;;;0.10;;
12884;SDS011;6510;51.362;7.370;2023-07-29T07:43:33;0.15;;;0.15;;
12884;SDS011;6510;51.362;7.370;2023-07-29T07:45:59;0.20;;;0.20;;
12884;SDS011;6510;51.362;7.370;2023-07-29T07:48:26;0.10;;;0.10;;
12884;SDS011;6510;51.362;7.370;2023-07-29T07:50:52;0.13;;;0.13;;
12884;SDS011;6510;51.362;7.370;2023-07-29T07:53:18;0.20;;;0.20;;
12884;SDS011;6510;51.362;7.370;2023-07-29T07:55:45;0.20;;;0.20;;
12884;SDS011;6510;51.362;7.370;2023-07-29T07:58:11;0.20;;;0.20;;
12884;SDS011;6510;51.362;7.370;2023-07-29T08:00:37;0.20;;;0.20;;
12884;SDS011;6510;51.362;7.370;2023-07-29T08:03:02;0.10;;;0.10;;
12884;SDS011;6510;51.362;7.370;2023-07-29T08:05:28;0.20;;;0.20;;
12884;SDS011;6510;51.362;7.370;2023-07-29T08:07:54;0.10;;;0.10;;
12884;SDS011;6510;51.362;7.370;2023-07-29T08:10:20;0.17;;;0.17;;
12884;SDS011;6510;51.362;7.370;2023-07-29T08:12:45;0.10;;;0.10;;
12884;SDS011;6510;51.362;7.370;2023-07-29T08:15:11;0.20;;;0.20;;
12884;SDS011;6510;51.362;7.370;2023-07-29T08:17:37;0.10;;;0.10;;
12884;SDS011;6510;51.362;7.370;2023-07-29T08:20:02;0.20;;;0.20;;
12884;SDS011;6510;51.362;7.370;2023-07-29T08:22:28;0.13;;;0.13;;
12884;SDS011;6510;51.362;7.370;2023-07-29T08:24:54;0.15;;;0.15;;
12884;SDS011;6510;51.362;7.370;2023-07-29T08:27:20;0.20;;;0.20;;
12884;SDS011;6510;51.362;7.370;2023-07-29T08:29:45;0.20;;;0.20;;
12884;SDS011;6510;51.362;7.370;2023-07-29T08:32:11;0.10;;;0.10;;
12884;SDS011;6510;51.362;7.370;2023-07-29T08:34:39;0.20;;;0.20;;
12884;SDS011;6510;51.362;7.370;2023-07-29T08:37:04;0.20;;;0.20;;
12884;SDS011;6510;51.362;7.370;2023-07-29T08:39:30;0.10;;;0.10;;
12884;SDS011;6510;51.362;7.370;2023-07-29T08:44:35;0.20;;;0.20;;
12884;SDS011;6510;51.362;7.370;2023-07-29T08:47:13;0.10;;;0.10;;
12884;SDS011;6510;51.362;7.370;2023-07-29T08:49:39;0.20;;;0.20;;
12884;SDS011;6510;51.362;7.370;2023-07-29T08:52:06;0.20;;;0.20;;
12884;SDS011;6510;51.362;7.370;2023-07-29T08:54:32;0.20;;;0.20;;
12884;SDS011;6510;51.362;7.370;2023-07-29T08:56:59;0.20;;;0.20;;
12884;SDS011;6510;51.362;7.370;2023-07-29T08:59:25;0.20;;;0.20;;
12884;SDS011;6510;51.362;7.370;2023-07-29T09:01:52;0.13;;;0.13;;
12884;SDS011;6510;51.362;7.370;2023-07-29T09:04:20;0.20;;;0.20;;
12884;SDS011;6510;51.362;7.370;2023-07-29T09:06:47;0.20;;;0.20;;
12884;SDS011;6510;51.362;7.370;2023-07-29T09:09:15;0.25;;;0.25;;
12884;SDS011;6510;51.362;7.370;2023-07-29T09:11:40;0.20;;;0.20;;
12884;SDS011;6510;51.362;7.370;2023-07-29T09:14:06;0.20;;;0.20;;
12884;SDS011;6510;51.362;7.370;2023-07-29T09:16:32;0.22;;;0.22;;
12884;SDS011;6510;51.362;7.370;2023-07-29T09:19:01;0.20;;;0.20;;
12884;SDS011;6510;51.362;7.370;2023-07-29T09:21:28;0.25;;;0.25;;
12884;SDS011;6510;51.362;7.370;2023-07-29T09:23:54;0.30;;;0.30;;
12884;SDS011;6510;51.362;7.370;2023-07-29T09:28:53;0.25;;;0.25;;
12884;SDS011;6510;51.362;7.370;2023-07-29T09:31:21;0.20;;;0.20;;
12884;SDS011;6510;51.362;7.370;2023-07-29T09:33:48;0.20;;;0.20;;
12884;SDS011;6510;51.362;7.370;2023-07-29T09:36:14;0.25;;;0.25;;
12884;SDS011;6510;51.362;7.370;2023-07-29T09:38:40;0.20;;;0.20;;
12884;SDS011;6510;51.362;7.370;2023-07-29T09:41:05;0.20;;;0.20;;
12884;SDS011;6510;51.362;7.370;2023-07-29T09:43:35;0.30;;;0.30;;
12884;SDS011;6510;51.362;7.370;2023-07-29T09:46:04;0.30;;;0.30;;
12884;SDS011;6510;51.362;7.370;2023-07-29T09:48:35;0.20;;;0.20;;
12884;SDS011;6510;51.362;7.370;2023-07-29T09:51:11;0.20;;;0.20;;
12884;SDS011;6510;51.362;7.370;2023-07-29T09:53:45;0.20;;;0.20;;
12884;SDS011;6510;51.362;7.370;2023-07-29T09:56:12;0.20;;;0.20;;
12884;SDS011;6510;51.362;7.370;2023-07-29T09:58:38;0.20;;;0.20;;
12884;SDS011;6510;51.362;7.370;2023-07-29T10:01:05;0.20;;;0.20;;
12884;SDS011;6510;51.362;7.370;2023-07-29T10:03:32;0.20;;;0.20;;
12884;SDS011;6510;51.362;7.370;2023-07-29T10:06:02;0.10;;;0.10;;
12884;SDS011;6510;51.362;7.370;2023-07-29T10:08:31;0.10;;;0.10;;
12884;SDS011;6510;51.362;7.370;2023-07-29T10:11:10;0.20;;;0.20;;
12884;SDS011;6510;51.362;7.370;2023-07-29T10:13:36;0.20;;;0.20;;
12884;SDS011;6510;51.362;7.370;2023-07-29T10:16:03;0.20;;;0.20;;
12884;SDS011;6510;51.362;7.370;2023-07-29T10:18:30;0.20;;;0.20;;
12884;SDS011;6510;51.362;7.370;2023-07-29T10:20:57;0.15;;;0.15;;
12884;SDS011;6510;51.362;7.370;2023-07-29T10:23:24;0.20;;;0.20;;
12884;SDS011;6510;51.362;7.370;2023-07-29T10:26:05;0.20;;;0.20;;
12884;SDS011;6510;51.362;7.370;2023-07-29T10:28:34;0.20;;;0.20;;
12884;SDS011;6510;51.362;7.370;2023-07-29T10:31:11;0.13;;;0.13;;
12884;SDS011;6510;51.362;7.370;2023-07-29T10:33:39;0.20;;;0.20;;
12884;SDS011;6510;51.362;7.370;2023-07-29T10:36:05;0.10;;;0.10;;
12884;SDS011;6510;51.362;7.370;2023-07-29T10:38:31;0.10;;;0.10;;
12884;SDS011;6510;51.362;7.370;2023-07-29T10:40:57;0.10;;;0.10;;
12884;SDS011;6510;51.362;7.370;2023-07-29T10:45:52;0.13;;;0.13;;
12884;SDS011;6510;51.362;7.370;2023-07-29T10:51:26;0.20;;;0.20;;
12884;SDS011;6510;51.362;7.370;2023-07-29T10:53:58;0.20;;;0.20;;
12884;SDS011;6510;51.362;7.370;2023-07-29T10:56:33;0.20;;;0.20;;
12884;SDS011;6510;51.362;7.370;2023-07-29T11:01:41;0.20;;;0.20;;
12884;SDS011;6510;51.362;7.370;2023-07-29T11:17:37;0.20;;;0.20;;
12884;SDS011;6510;51.362;7.370;2023-07-29T11:20:05;0.10;;;0.10;;
12884;SDS011;6510;51.362;7.370;2023-07-29T11:22:32;0.20;;;0.20;;
12884;SDS011;6510;51.362;7.370;2023-07-29T11:24:58;0.20;;;0.20;;
12884;SDS011;6510;51.362;7.370;2023-07-29T11:27:23;0.20;;;0.20;;
12884;SDS011;6510;51.362;7.370;2023-07-29T11:29:49;0.20;;;0.20;;
12884;SDS011;6510;51.362;7.370;2023-07-29T11:32:15;0.20;;;0.20;;
12884;SDS011;6510;51.362;7.370;2023-07-29T11:34:41;0.30;;;0.30;;
12884;SDS011;6510;51.362;7.370;2023-07-29T11:37:09;0.28;;;0.28;;
12884;SDS011;6510;51.362;7.370;2023-07-29T11:39:43;0.20;;;0.20;;
12884;SDS011;6510;51.362;7.370;2023-07-29T11:42:10;0.20;;;0.20;;
12884;SDS011;6510;51.362;7.370;2023-07-29T11:44:37;0.20;;;0.20;;
12884;SDS011;6510;51.362;7.370;2023-07-29T11:47:06;0.17;;;0.17;;
12884;SDS011;6510;51.362;7.370;2023-07-29T11:49:33;0.30;;;0.30;;
12884;SDS011;6510;51.362;7.370;2023-07-29T11:51:59;0.30;;;0.30;;
12884;SDS011;6510;51.362;7.370;2023-07-29T11:54:25;0.20;;;0.20;;
12884;SDS011;6510;51.362;7.370;2023-07-29T11:56:51;0.20;;;0.20;;
12884;SDS011;6510;51.362;7.370;2023-07-29T11:59:16;0.20;;;0.20;;
12884;SDS011;6510;51.362;7.370;2023-07-29T12:01:42;0.10;;;0.10;;
12884;SDS011;6510;51.362;7.370;2023-07-29T12:04:08;0.20;;;0.20;;
12884;SDS011;6510;51.362;7.370;2023-07-29T12:06:34;0.10;;;0.10;;
12884;SDS011;6510;51.362;7.370;2023-07-29T12:09:00;0.10;;;0.10;;
12884;SDS011;6510;51.362;7.370;2023-07-29T12:11:26;0.20;;;0.20;;
12884;SDS011;6510;51.362;7.370;2023-07-29T12:13:55;0.20;;;0.20;;
12884;SDS011;6510;51.362;7.370;2023-07-29T12:16:21;0.20;;;0.20;;
12884;SDS011;6510;51.362;7.370;2023-07-29T12:18:46;0.20;;;0.20;;
12884;SDS011;6510;51.362;7.370;2023-07-29T12:21:13;0.20;;;0.20;;
12884;SDS011;6510;51.362;7.370;2023-07-29T12:23:39;0.20;;;0.20;;
12884;SDS011;6510;51.362;7.370;2023-07-29T12:26:05;0.20;;;0.20;;
12884;SDS011;6510;51.362;7.370;2023-07-29T12:28:30;0.20;;;0.20;;
12884;SDS011;6510;51.362;7.370;2023-07-29T12:30:56;0.20;;;0.20;;
12884;SDS011;6510;51.362;7.370;2023-07-29T12:33:32;0.20;;;0.20;;
12884;SDS011;6510;51.362;7.370;2023-07-29T12:35:59;0.20;;;0.20;;
12884;SDS011;6510;51.362;7.370;2023-07-29T12:38:28;0.10;;;0.10;;
12884;SDS011;6510;51.362;7.370;2023-07-29T12:40:54;0.20;;;0.20;;
12884;SDS011;6510;51.362;7.370;2023-07-29T12:43:20;0.20;;;0.20;;
12884;SDS011;6510;51.362;7.370;2023-07-29T12:45:48;0.20;;;0.20;;
12884;SDS011;6510;51.362;7.370;2023-07-29T12:48:14;0.20;;;0.20;;
12884;SDS011;6510;51.362;7.370;2023-07-29T12:50:40;0.20;;;0.20;;
12884;SDS011;6510;51.362;7.370;2023-07-29T12:53:06;0.10;;;0.10;;
12884;SDS011;6510;51.362;7.370;2023-07-29T12:55:35;0.10;;;0.10;;
12884;SDS011;6510;51.362;7.370;2023-07-29T12:58:00;0.10;;;0.10;;
12884;SDS011;6510;51.362;7.370;2023-07-29T13:00:27;0.10;;;0.10;;
12884;SDS011;6510;51.362;7.370;2023-07-29T13:02:53;0.20;;;0.20;;
12884;SDS011;6510;51.362;7.370;2023-07-29T13:05:19;0.20;;;0.20;;
12884;SDS011;6510;51.362;7.370;2023-07-29T13:07:45;0.10;;;0.10;;
12884;SDS011;6510;51.362;7.370;2023-07-29T13:10:11;0.17;;;0.17;;
12884;SDS011;6510;51.362;7.370;2023-07-29T13:12:37;0.20;;;0.20;;
12884;SDS011;6510;51.362;7.370;2023-07-29T13:15:03;0.30;;;0.30;;
12884;SDS011;6510;51.362;7.370;2023-07-29T13:17:29;0.20;;;0.20;;
12884;SDS011;6510;51.362;7.370;2023-07-29T13:19:54;0.22;;;0.22;;
12884;SDS011;6510;51.362;7.370;2023-07-29T13:22:20;0.20;;;0.20;;
12884;SDS011;6510;51.362;7.370;2023-07-29T13:24:46;0.30;;;0.30;;
12884;SDS011;6510;51.362;7.370;2023-07-29T13:27:12;0.20;;;0.20;;
12884;SDS011;6510;51.362;7.370;2023-07-29T13:29:37;0.20;;;0.20;;
12884;SDS011;6510;51.362;7.370;2023-07-29T13:32:04;0.20;;;0.20;;
12884;SDS011;6510;51.362;7.370;2023-07-29T13:34:31;0.20;;;0.20;;
12884;SDS011;6510;51.362;7.370;2023-07-29T13:36:56;0.13;;;0.13;;
12884;SDS011;6510;51.362;7.370;2023-07-29T13:39:22;0.20;;;0.20;;
12884;SDS011;6510;51.362;7.370;2023-07-29T13:41:47;0.17;;;0.17;;
12884;SDS011;6510;51.362;7.370;2023-07-29T13:44:13;0.20;;;0.20;;
12884;SDS011;6510;51.362;7.370;2023-07-29T13:46:39;0.20;;;0.20;;
12884;SDS011;6510;51.362;7.370;2023-07-29T13:49:04;0.10;;;0.10;;
12884;SDS011;6510;51.362;7.370;2023-07-29T13:51:30;0.10;;;0.10;;
12884;SDS011;6510;51.362;7.370;2023-07-29T13:53:55;0.10;;;0.10;;
12884;SDS011;6510;51.362;7.370;2023-07-29T13:56:21;0.13;;;0.13;;
12884;SDS011;6510;51.362;7.370;2023-07-29T13:58:47;0.10;;;0.10;;
12884;SDS011;6510;51.362;7.370;2023-07-29T14:01:13;0.10;;;0.10;;
12884;SDS011;6510;51.362;7.370;2023-07-29T14:03:39;0.20;;;0.20;;
12884;SDS011;6510;51.362;7.370;2023-07-29T14:06:04;0.10;;;0.10;;
12884;SDS011;6510;51.362;7.370;2023-07-29T14:08:30;0.20;;;0.20;;
12884;SDS011;6510;51.362;7.370;2023-07-29T14:10:55;0.10;;;0.10;;
12884;SDS011;6510;51.362;7.370;2023-07-29T14:13:22;0.20;;;0.20;;
12884;SDS011;6510;51.362;7.370;2023-07-29T14:15:47;0.10;;;0.10;;
12884;SDS011;6510;51.362;7.370;2023-07-29T14:18:13;0.17;;;0.17;;
12884;SDS011;6510;51.362;7.370;2023-07-29T14:20:39;0.13;;;0.13;;
12884;SDS011;6510;51.362;7.370;2023-07-29T14:23:04;0.20;;;0.20;;
12884;SDS011;6510;51.362;7.370;2023-07-29T14:25:30;0.10;;;0.10;;
12884;SDS011;6510;51.362;7.370;2023-07-29T14:27:56;0.20;;;0.20;;
12884;SDS011;6510;51.362;7.370;2023-07-29T14:30:21;0.10;;;0.10;;
12884;SDS011;6510;51.362;7.370;2023-07-29T14:32:47;0.10;;;0.10;;
12884;SDS011;6510;51.362;7.370;2023-07-29T14:35:13;0.20;;;0.20;;
12884;SDS011;6510;51.362;7.370;2023-07-29T14:37:39;0.10;;;0.10;;
12884;SDS011;6510;51.362;7.370;2023-07-29T14:40:04;0.15;;;0.15;;
12884;SDS011;6510;51.362;7.370;2023-07-29T14:42:31;0.10;;;0.10;;
12884;SDS011;6510;51.362;7.370;2023-07-29T14:44:56;0.10;;;0.10;;
12884;SDS011;6510;51.362;7.370;2023-07-29T14:47:22;0.20;;;0.20;;
12884;SDS011;6510;51.362;7.370;2023-07-29T14:49:48;0.10;;;0.10;;
12884;SDS011;6510;51.362;7.370;2023-07-29T14:52:13;0.10;;;0.10;;
12884;SDS011;6510;51.362;7.370;2023-07-29T14:54:39;0.10;;;0.10;;
12884;SDS011;6510;51.362;7.370;2023-07-29T14:57:05;0.17;;;0.17;;
12884;SDS011;6510;51.362;7.370;2023-07-29T14:59:31;0.20;;;0.20;;
12884;SDS011;6510;51.362;7.370;2023-07-29T15:01:57;0.10;;;0.10;;
12884;SDS011;6510;51.362;7.370;2023-07-29T15:04:23;0.10;;;0.10;;
12884;SDS011;6510;51.362;7.370;2023-07-29T15:06:49;0.13;;;0.13;;
12884;SDS011;6510;51.362;7.370;2023-07-29T15:09:14;0.10;;;0.10;;
12884;SDS011;6510;51.362;7.370;2023-07-29T15:11:40;0.10;;;0.10;;
12884;SDS011;6510;51.362;7.370;2023-07-29T15:14:06;0.10;;;0.10;;
12884;SDS011;6510;51.362;7.370;2023-07-29T15:16:31;0.10;;;0.10;;
12884;SDS011;6510;51.362;7.370;2023-07-29T15:18:59;0.10;;;0.10;;
12884;SDS011;6510;51.362;7.370;2023-07-29T15:21:24;0.10;;;0.10;;
12884;SDS011;6510;51.362;7.370;2023-07-29T15:23:50;0.00;;;0.00;;
12884;SDS011;6510;51.362;7.370;2023-07-29T15:26:16;0.10;;;0.10;;